sensor_id;sensor_type;location;lat;lon;timestamp;P1;durP1;ratioP1;P2;durP2;ratioP2
50757;SDS011;36732;47.980;11.652;2023-06-26T00:00:40;5.10;;;4.53;;
50757;SDS011;36732;47.980;11.652;2023-06-26T00:03:06;5.00;;;4.40;;
50757;SDS011;36732;47.980;11.652;2023-06-26T00:05:32;4.93;;;4.03;;
50757;SDS011;36732;47.980;11.652;2023-06-26T00:07:58;4.72;;;4.32;;
50757;SDS011;36732;47.980;11.652;2023-06-26T00:10:25;4.18;;;3.78;;
50757;SDS011;36732;47.980;11.652;2023-06-26T00:12:54;5.32;;;3.80;;
50757;SDS011;36732;47.980;11.652;2023-06-26T00:15:19;5.13;;;3.90;;
50757;SDS011;36732;47.980;11.652;2023-06-26T00:17:45;4.22;;;3.83;;
50757;SDS011;36732;47.980;11.652;2023-06-26T00:20:11;4.53;;;3.70;;
50757;SDS011;36732;47.980;11.652;2023-06-26T00:22:36;4.20;;;3.80;;
50757;SDS011;36732;47.980;11.652;2023-06-26T00:25:06;4.47;;;3.78;;
50757;SDS011;36732;47.980;11.652;2023-06-26T00:27:32;4.50;;;4.10;;
50757;SDS011;36732;47.980;11.652;2023-06-26T00:29:58;4.45;;;4.03;;
50757;SDS011;36732;47.980;11.652;2023-06-26T00:32:24;5.00;;;4.38;;
50757;SDS011;36732;47.980;11.652;2023-06-26T00:34:49;4.63;;;3.90;;
50757;SDS011;36732;47.980;11.652;2023-06-26T00:37:15;4.95;;;4.43;;
50757;SDS011;36732;47.980;11.652;2023-06-26T00:39:41;4.68;;;4.18;;
50757;SDS011;36732;47.980;11.652;2023-06-26T00:42:07;5.82;;;3.95;;
50757;SDS011;36732;47.980;11.652;2023-06-26T00:44:32;4.88;;;4.10;;
50757;SDS011;36732;47.980;11.652;2023-06-26T00:46:58;5.45;;;3.83;;
50757;SDS011;36732;47.980;11.652;2023-06-26T00:49:24;4.70;;;4.22;;
50757;SDS011;36732;47.980;11.652;2023-06-26T00:51:51;5.18;;;4.03;;
50757;SDS011;36732;47.980;11.652;2023-06-26T00:54:18;4.53;;;3.97;;
50757;SDS011;36732;47.980;11.652;2023-06-26T00:56:45;4.38;;;3.97;;
50757;SDS011;36732;47.980;11.652;2023-06-26T00:59:12;4.50;;;3.97;;
50757;SDS011;36732;47.980;11.652;2023-06-26T01:01:38;5.43;;;4.22;;
50757;SDS011;36732;47.980;11.652;2023-06-26T01:04:04;4.90;;;4.40;;
50757;SDS011;36732;47.980;11.652;2023-06-26T01:06:30;4.43;;;4.03;;
50757;SDS011;36732;47.980;11.652;2023-06-26T01:09:01;4.45;;;3.83;;
50757;SDS011;36732;47.980;11.652;2023-06-26T01:11:27;5.50;;;4.07;;
50757;SDS011;36732;47.980;11.652;2023-06-26T01:13:53;4.93;;;4.22;;
50757;SDS011;36732;47.980;11.652;2023-06-26T01:16:21;5.32;;;4.18;;
50757;SDS011;36732;47.980;11.652;2023-06-26T01:18:48;4.18;;;3.78;;
50757;SDS011;36732;47.980;11.652;2023-06-26T01:21:14;5.97;;;4.38;;
50757;SDS011;36732;47.980;11.652;2023-06-26T01:23:47;6.15;;;4.25;;
50757;SDS011;36732;47.980;11.652;2023-06-26T01:26:32;5.10;;;4.13;;
50757;SDS011;36732;47.980;11.652;2023-06-26T01:29:02;4.22;;;3.80;;
50757;SDS011;36732;47.980;11.652;2023-06-26T01:31:31;5.00;;;4.22;;
50757;SDS011;36732;47.980;11.652;2023-06-26T01:33:59;4.90;;;4.03;;
50757;SDS011;36732;47.980;11.652;2023-06-26T01:36:25;4.60;;;4.10;;
50757;SDS011;36732;47.980;11.652;2023-06-26T01:38:52;4.53;;;4.05;;
50757;SDS011;36732;47.980;11.652;2023-06-26T01:41:18;5.50;;;3.95;;
50757;SDS011;36732;47.980;11.652;2023-06-26T01:55:17;5.70;;;4.47;;
50757;SDS011;36732;47.980;11.652;2023-06-26T01:57:54;4.80;;;3.88;;
50757;SDS011;36732;47.980;11.652;2023-06-26T02:00:21;4.68;;;4.18;;
50757;SDS011;36732;47.980;11.652;2023-06-26T02:02:49;5.32;;;3.88;;
50757;SDS011;36732;47.980;11.652;2023-06-26T02:05:15;4.45;;;3.85;;
50757;SDS011;36732;47.980;11.652;2023-06-26T02:07:41;4.35;;;3.95;;
50757;SDS011;36732;47.980;11.652;2023-06-26T02:10:07;5.85;;;4.68;;
50757;SDS011;36732;47.980;11.652;2023-06-26T02:12:34;5.63;;;4.82;;
50757;SDS011;36732;47.980;11.652;2023-06-26T02:15:01;4.68;;;3.85;;
50757;SDS011;36732;47.980;11.652;2023-06-26T02:17:28;5.47;;;4.05;;
50757;SDS011;36732;47.980;11.652;2023-06-26T02:19:54;4.05;;;3.65;;
50757;SDS011;36732;47.980;11.652;2023-06-26T02:22:19;5.40;;;4.38;;
50757;SDS011;36732;47.980;11.652;2023-06-26T02:24:45;4.63;;;4.15;;
50757;SDS011;36732;47.980;11.652;2023-06-26T02:27:11;4.97;;;4.15;;
50757;SDS011;36732;47.980;11.652;2023-06-26T02:29:37;4.95;;;4.45;;
50757;SDS011;36732;47.980;11.652;2023-06-26T02:32:03;4.80;;;4.30;;
50757;SDS011;36732;47.980;11.652;2023-06-26T02:34:29;4.30;;;3.85;;
50757;SDS011;36732;47.980;11.652;2023-06-26T02:36:55;4.82;;;4.20;;
50757;SDS011;36732;47.980;11.652;2023-06-26T02:39:21;3.90;;;3.50;;
50757;SDS011;36732;47.980;11.652;2023-06-26T02:41:47;5.70;;;4.60;;
50757;SDS011;36732;47.980;11.652;2023-06-26T02:44:13;5.18;;;4.32;;
50757;SDS011;36732;47.980;11.652;2023-06-26T02:46:39;4.38;;;3.97;;
50757;SDS011;36732;47.980;11.652;2023-06-26T02:49:05;4.68;;;4.00;;
50757;SDS011;36732;47.980;11.652;2023-06-26T02:51:32;5.45;;;4.47;;
50757;SDS011;36732;47.980;11.652;2023-06-26T02:53:58;5.68;;;4.45;;
50757;SDS011;36732;47.980;11.652;2023-06-26T02:56:25;5.70;;;4.43;;
50757;SDS011;36732;47.980;11.652;2023-06-26T02:58:53;5.30;;;4.50;;
50757;SDS011;36732;47.980;11.652;2023-06-26T03:01:22;5.03;;;4.25;;
50757;SDS011;36732;47.980;11.652;2023-06-26T03:03:48;4.45;;;4.05;;
50757;SDS011;36732;47.980;11.652;2023-06-26T03:06:14;5.85;;;3.83;;
50757;SDS011;36732;47.980;11.652;2023-06-26T03:08:40;5.40;;;4.68;;
50757;SDS011;36732;47.980;11.652;2023-06-26T03:11:07;4.85;;;4.35;;
50757;SDS011;36732;47.980;11.652;2023-06-26T03:13:34;4.82;;;4.35;;
50757;SDS011;36732;47.980;11.652;2023-06-26T03:16:01;5.60;;;4.85;;
50757;SDS011;36732;47.980;11.652;2023-06-26T03:18:28;4.80;;;4.25;;
50757;SDS011;36732;47.980;11.652;2023-06-26T03:20:54;4.85;;;4.18;;
50757;SDS011;36732;47.980;11.652;2023-06-26T03:23:21;5.03;;;4.30;;
50757;SDS011;36732;47.980;11.652;2023-06-26T03:25:48;4.75;;;3.97;;
50757;SDS011;36732;47.980;11.652;2023-06-26T03:28:14;4.72;;;4.03;;
50757;SDS011;36732;47.980;11.652;2023-06-26T03:30:40;5.82;;;4.20;;
50757;SDS011;36732;47.980;11.652;2023-06-26T03:33:05;5.40;;;4.47;;
50757;SDS011;36732;47.980;11.652;2023-06-26T03:35:31;4.93;;;3.88;;
50757;SDS011;36732;47.980;11.652;2023-06-26T03:37:57;5.53;;;4.60;;
50757;SDS011;36732;47.980;11.652;2023-06-26T03:40:24;5.07;;;4.47;;
50757;SDS011;36732;47.980;11.652;2023-06-26T03:42:49;6.13;;;4.40;;
50757;SDS011;36732;47.980;11.652;2023-06-26T03:45:15;5.57;;;4.32;;
50757;SDS011;36732;47.980;11.652;2023-06-26T03:47:41;4.70;;;4.20;;
50757;SDS011;36732;47.980;11.652;2023-06-26T03:50:07;6.03;;;4.95;;
50757;SDS011;36732;47.980;11.652;2023-06-26T03:52:33;5.20;;;4.70;;
50757;SDS011;36732;47.980;11.652;2023-06-26T03:54:59;4.85;;;4.30;;
50757;SDS011;36732;47.980;11.652;2023-06-26T03:57:25;5.93;;;4.30;;
50757;SDS011;36732;47.980;11.652;2023-06-26T03:59:51;5.32;;;4.00;;
50757;SDS011;36732;47.980;11.652;2023-06-26T04:02:18;5.13;;;4.60;;
50757;SDS011;36732;47.980;11.652;2023-06-26T04:04:44;4.95;;;4.45;;
50757;SDS011;36732;47.980;11.652;2023-06-26T04:07:09;5.30;;;4.38;;
50757;SDS011;36732;47.980;11.652;2023-06-26T04:09:35;4.60;;;4.10;;
50757;SDS011;36732;47.980;11.652;2023-06-26T04:12:01;5.38;;;4.32;;
50757;SDS011;36732;47.980;11.652;2023-06-26T04:14:28;5.28;;;4.75;;
50757;SDS011;36732;47.980;11.652;2023-06-26T04:16:53;6.78;;;4.25;;
50757;SDS011;36732;47.980;11.652;2023-06-26T04:19:19;5.13;;;4.10;;
50757;SDS011;36732;47.980;11.652;2023-06-26T04:21:45;4.13;;;3.63;;
50757;SDS011;36732;47.980;11.652;2023-06-26T04:24:11;5.63;;;4.45;;
50757;SDS011;36732;47.980;11.652;2023-06-26T04:26:36;4.93;;;4.25;;
50757;SDS011;36732;47.980;11.652;2023-06-26T04:29:02;5.70;;;5.10;;
50757;SDS011;36732;47.980;11.652;2023-06-26T04:31:28;5.80;;;4.90;;
50757;SDS011;36732;47.980;11.652;2023-06-26T04:33:54;4.80;;;4.30;;
50757;SDS011;36732;47.980;11.652;2023-06-26T04:36:20;5.00;;;4.20;;
50757;SDS011;36732;47.980;11.652;2023-06-26T04:38:46;4.80;;;4.13;;
50757;SDS011;36732;47.980;11.652;2023-06-26T04:41:15;6.57;;;4.60;;
50757;SDS011;36732;47.980;11.652;2023-06-26T04:43:40;5.75;;;4.93;;
50757;SDS011;36732;47.980;11.652;2023-06-26T04:46:06;5.07;;;4.05;;
50757;SDS011;36732;47.980;11.652;2023-06-26T04:48:32;5.15;;;4.50;;
50757;SDS011;36732;47.980;11.652;2023-06-26T04:50:58;5.13;;;4.57;;
50757;SDS011;36732;47.980;11.652;2023-06-26T04:53:24;5.90;;;4.68;;
50757;SDS011;36732;47.980;11.652;2023-06-26T04:55:50;6.22;;;5.22;;
50757;SDS011;36732;47.980;11.652;2023-06-26T04:58:17;5.13;;;4.50;;
50757;SDS011;36732;47.980;11.652;2023-06-26T05:00:43;5.10;;;4.57;;
50757;SDS011;36732;47.980;11.652;2023-06-26T05:03:10;5.20;;;4.70;;
50757;SDS011;36732;47.980;11.652;2023-06-26T05:05:41;4.88;;;4.25;;
50757;SDS011;36732;47.980;11.652;2023-06-26T05:08:14;8.45;;;4.70;;
50757;SDS011;36732;47.980;11.652;2023-06-26T05:10:42;6.78;;;5.10;;
50757;SDS011;36732;47.980;11.652;2023-06-26T05:13:08;6.70;;;4.57;;
50757;SDS011;36732;47.980;11.652;2023-06-26T05:15:34;8.00;;;5.25;;
50757;SDS011;36732;47.980;11.652;2023-06-26T05:17:59;5.38;;;4.70;;
50757;SDS011;36732;47.980;11.652;2023-06-26T05:20:25;6.80;;;5.68;;
50757;SDS011;36732;47.980;11.652;2023-06-26T05:22:51;5.57;;;4.97;;
50757;SDS011;36732;47.980;11.652;2023-06-26T05:25:17;7.85;;;5.03;;
50757;SDS011;36732;47.980;11.652;2023-06-26T05:27:46;6.20;;;4.90;;
50757;SDS011;36732;47.980;11.652;2023-06-26T05:30:14;5.43;;;4.57;;
50757;SDS011;36732;47.980;11.652;2023-06-26T05:32:40;6.25;;;5.30;;
50757;SDS011;36732;47.980;11.652;2023-06-26T05:35:07;6.90;;;4.57;;
50757;SDS011;36732;47.980;11.652;2023-06-26T05:37:34;6.20;;;4.90;;
50757;SDS011;36732;47.980;11.652;2023-06-26T05:40:00;6.47;;;3.92;;
50757;SDS011;36732;47.980;11.652;2023-06-26T05:42:29;5.40;;;4.40;;
50757;SDS011;36732;47.980;11.652;2023-06-26T05:44:55;6.43;;;4.65;;
50757;SDS011;36732;47.980;11.652;2023-06-26T05:47:21;5.95;;;4.88;;
50757;SDS011;36732;47.980;11.652;2023-06-26T05:49:47;5.45;;;4.43;;
50757;SDS011;36732;47.980;11.652;2023-06-26T05:52:13;8.27;;;5.18;;
50757;SDS011;36732;47.980;11.652;2023-06-26T05:54:39;6.40;;;4.40;;
50757;SDS011;36732;47.980;11.652;2023-06-26T05:57:05;4.82;;;4.32;;
50757;SDS011;36732;47.980;11.652;2023-06-26T05:59:31;7.15;;;4.70;;
50757;SDS011;36732;47.980;11.652;2023-06-26T06:01:57;5.60;;;4.70;;
50757;SDS011;36732;47.980;11.652;2023-06-26T06:04:23;4.40;;;3.97;;
50757;SDS011;36732;47.980;11.652;2023-06-26T06:06:49;6.95;;;4.57;;
50757;SDS011;36732;47.980;11.652;2023-06-26T06:09:15;6.90;;;4.72;;
50757;SDS011;36732;47.980;11.652;2023-06-26T06:11:40;5.25;;;4.45;;
50757;SDS011;36732;47.980;11.652;2023-06-26T06:14:06;4.72;;;4.13;;
50757;SDS011;36732;47.980;11.652;2023-06-26T06:16:32;4.80;;;4.32;;
50757;SDS011;36732;47.980;11.652;2023-06-26T06:18:57;5.15;;;4.60;;
50757;SDS011;36732;47.980;11.652;2023-06-26T06:21:23;8.38;;;4.50;;
50757;SDS011;36732;47.980;11.652;2023-06-26T06:23:49;6.65;;;4.50;;
50757;SDS011;36732;47.980;11.652;2023-06-26T06:26:15;5.80;;;4.22;;
50757;SDS011;36732;47.980;11.652;2023-06-26T06:28:40;5.53;;;4.80;;
50757;SDS011;36732;47.980;11.652;2023-06-26T06:31:06;5.43;;;3.90;;
50757;SDS011;36732;47.980;11.652;2023-06-26T06:33:32;7.63;;;3.78;;
50757;SDS011;36732;47.980;11.652;2023-06-26T06:35:57;6.07;;;4.10;;
50757;SDS011;36732;47.980;11.652;2023-06-26T06:38:23;4.55;;;4.15;;
50757;SDS011;36732;47.980;11.652;2023-06-26T06:40:49;5.90;;;3.80;;
50757;SDS011;36732;47.980;11.652;2023-06-26T06:43:15;4.90;;;4.07;;
50757;SDS011;36732;47.980;11.652;2023-06-26T06:45:40;4.25;;;3.78;;
50757;SDS011;36732;47.980;11.652;2023-06-26T06:48:06;4.10;;;3.70;;
50757;SDS011;36732;47.980;11.652;2023-06-26T06:50:32;4.25;;;3.85;;
50757;SDS011;36732;47.980;11.652;2023-06-26T06:52:58;4.65;;;4.18;;
50757;SDS011;36732;47.980;11.652;2023-06-26T06:55:23;4.10;;;3.42;;
50757;SDS011;36732;47.980;11.652;2023-06-26T06:57:50;5.25;;;4.13;;
50757;SDS011;36732;47.980;11.652;2023-06-26T07:00:17;4.40;;;4.00;;
50757;SDS011;36732;47.980;11.652;2023-06-26T07:02:43;3.55;;;3.20;;
50757;SDS011;36732;47.980;11.652;2023-06-26T07:05:10;5.80;;;3.95;;
50757;SDS011;36732;47.980;11.652;2023-06-26T07:07:37;4.35;;;3.95;;
50757;SDS011;36732;47.980;11.652;2023-06-26T07:10:05;3.58;;;3.28;;
50757;SDS011;36732;47.980;11.652;2023-06-26T07:12:36;4.25;;;3.85;;
50757;SDS011;36732;47.980;11.652;2023-06-26T07:15:02;4.68;;;3.63;;
50757;SDS011;36732;47.980;11.652;2023-06-26T07:17:30;3.95;;;3.55;;
50757;SDS011;36732;47.980;11.652;2023-06-26T07:20:00;4.80;;;4.30;;
50757;SDS011;36732;47.980;11.652;2023-06-26T07:22:28;4.75;;;3.70;;
50757;SDS011;36732;47.980;11.652;2023-06-26T07:24:54;4.00;;;3.47;;
50757;SDS011;36732;47.980;11.652;2023-06-26T07:27:20;4.40;;;3.38;;
50757;SDS011;36732;47.980;11.652;2023-06-26T07:29:45;4.70;;;3.63;;
50757;SDS011;36732;47.980;11.652;2023-06-26T07:32:11;4.70;;;4.20;;
50757;SDS011;36732;47.980;11.652;2023-06-26T07:34:37;4.53;;;4.03;;
50757;SDS011;36732;47.980;11.652;2023-06-26T07:37:03;4.28;;;3.88;;
50757;SDS011;36732;47.980;11.652;2023-06-26T07:39:29;5.57;;;3.90;;
50757;SDS011;36732;47.980;11.652;2023-06-26T07:41:55;3.95;;;3.55;;
50757;SDS011;36732;47.980;11.652;2023-06-26T07:44:23;4.00;;;3.60;;
50757;SDS011;36732;47.980;11.652;2023-06-26T07:46:48;4.82;;;4.03;;
50757;SDS011;36732;47.980;11.652;2023-06-26T07:49:14;4.60;;;4.07;;
50757;SDS011;36732;47.980;11.652;2023-06-26T07:51:40;4.38;;;3.92;;
50757;SDS011;36732;47.980;11.652;2023-06-26T07:54:05;4.72;;;4.03;;
50757;SDS011;36732;47.980;11.652;2023-06-26T07:56:34;8.18;;;3.85;;
50757;SDS011;36732;47.980;11.652;2023-06-26T07:59:18;4.05;;;3.65;;
50757;SDS011;36732;47.980;11.652;2023-06-26T08:01:44;4.25;;;3.47;;
50757;SDS011;36732;47.980;11.652;2023-06-26T08:04:09;3.55;;;3.25;;
50757;SDS011;36732;47.980;11.652;2023-06-26T08:06:36;4.85;;;3.72;;
50757;SDS011;36732;47.980;11.652;2023-06-26T08:09:05;4.50;;;3.95;;
50757;SDS011;36732;47.980;11.652;2023-06-26T08:11:33;4.03;;;3.63;;
50757;SDS011;36732;47.980;11.652;2023-06-26T08:13:59;4.35;;;3.63;;
50757;SDS011;36732;47.980;11.652;2023-06-26T08:16:25;4.88;;;3.95;;
50757;SDS011;36732;47.980;11.652;2023-06-26T08:18:51;4.80;;;4.15;;
50757;SDS011;36732;47.980;11.652;2023-06-26T08:21:16;4.10;;;3.45;;
50757;SDS011;36732;47.980;11.652;2023-06-26T08:23:42;4.45;;;3.95;;
50757;SDS011;36732;47.980;11.652;2023-06-26T08:26:08;4.28;;;3.42;;
50757;SDS011;36732;47.980;11.652;2023-06-26T08:28:33;3.88;;;3.40;;
50757;SDS011;36732;47.980;11.652;2023-06-26T08:30:59;3.45;;;3.15;;
50757;SDS011;36732;47.980;11.652;2023-06-26T08:33:25;3.25;;;2.95;;
50757;SDS011;36732;47.980;11.652;2023-06-26T08:35:51;4.20;;;3.38;;
50757;SDS011;36732;47.980;11.652;2023-06-26T08:38:17;3.92;;;3.47;;
50757;SDS011;36732;47.980;11.652;2023-06-26T08:40:43;3.70;;;3.40;;
50757;SDS011;36732;47.980;11.652;2023-06-26T08:43:09;4.78;;;3.53;;
50757;SDS011;36732;47.980;11.652;2023-06-26T08:45:34;3.80;;;3.50;;
50757;SDS011;36732;47.980;11.652;2023-06-26T08:48:00;5.18;;;3.58;;
50757;SDS011;36732;47.980;11.652;2023-06-26T08:50:30;4.50;;;4.10;;
50757;SDS011;36732;47.980;11.652;2023-06-26T08:53:02;4.03;;;3.63;;
50757;SDS011;36732;47.980;11.652;2023-06-26T08:55:41;4.50;;;4.05;;
50757;SDS011;36732;47.980;11.652;2023-06-26T08:58:08;3.92;;;3.53;;
50757;SDS011;36732;47.980;11.652;2023-06-26T09:00:36;4.00;;;3.60;;
50757;SDS011;36732;47.980;11.652;2023-06-26T09:03:02;4.43;;;3.63;;
50757;SDS011;36732;47.980;11.652;2023-06-26T09:05:29;3.72;;;3.40;;
50757;SDS011;36732;47.980;11.652;2023-06-26T09:07:57;6.68;;;3.78;;
50757;SDS011;36732;47.980;11.652;2023-06-26T09:10:23;3.80;;;3.40;;
50757;SDS011;36732;47.980;11.652;2023-06-26T09:12:49;4.18;;;3.70;;
50757;SDS011;36732;47.980;11.652;2023-06-26T09:15:15;3.92;;;3.53;;
50757;SDS011;36732;47.980;11.652;2023-06-26T09:17:44;3.88;;;3.47;;
50757;SDS011;36732;47.980;11.652;2023-06-26T09:20:10;3.80;;;3.40;;
50757;SDS011;36732;47.980;11.652;2023-06-26T09:22:37;5.55;;;3.63;;
50757;SDS011;36732;47.980;11.652;2023-06-26T09:25:05;4.10;;;3.70;;
50757;SDS011;36732;47.980;11.652;2023-06-26T09:27:31;3.90;;;3.55;;
50757;SDS011;36732;47.980;11.652;2023-06-26T09:29:57;5.38;;;3.30;;
50757;SDS011;36732;47.980;11.652;2023-06-26T09:32:24;4.00;;;3.53;;
50757;SDS011;36732;47.980;11.652;2023-06-26T09:34:51;4.07;;;3.60;;
50757;SDS011;36732;47.980;11.652;2023-06-26T09:37:20;4.43;;;3.58;;
50757;SDS011;36732;47.980;11.652;2023-06-26T09:39:47;3.35;;;2.97;;
50757;SDS011;36732;47.980;11.652;2023-06-26T09:42:14;3.70;;;3.00;;
50757;SDS011;36732;47.980;11.652;2023-06-26T09:44:43;3.03;;;2.78;;
50757;SDS011;36732;47.980;11.652;2023-06-26T09:47:10;3.30;;;3.00;;
50757;SDS011;36732;47.980;11.652;2023-06-26T09:49:36;3.08;;;2.78;;
50757;SDS011;36732;47.980;11.652;2023-06-26T09:52:02;3.25;;;2.95;;
50757;SDS011;36732;47.980;11.652;2023-06-26T09:54:28;3.53;;;3.15;;
50757;SDS011;36732;47.980;11.652;2023-06-26T09:56:55;3.25;;;2.95;;
50757;SDS011;36732;47.980;11.652;2023-06-26T09:59:32;2.90;;;2.55;;
50757;SDS011;36732;47.980;11.652;2023-06-26T10:01:59;4.82;;;3.33;;
50757;SDS011;36732;47.980;11.652;2023-06-26T10:04:25;3.72;;;3.22;;
50757;SDS011;36732;47.980;11.652;2023-06-26T10:06:51;3.58;;;3.05;;
50757;SDS011;36732;47.980;11.652;2023-06-26T10:09:21;4.60;;;3.13;;
50757;SDS011;36732;47.980;11.652;2023-06-26T10:14:30;3.40;;;3.10;;
50757;SDS011;36732;47.980;11.652;2023-06-26T10:17:03;3.45;;;2.67;;
50757;SDS011;36732;47.980;11.652;2023-06-26T10:19:33;3.20;;;2.90;;
50757;SDS011;36732;47.980;11.652;2023-06-26T10:22:00;3.03;;;2.72;;
50757;SDS011;36732;47.980;11.652;2023-06-26T10:24:29;3.00;;;2.67;;
50757;SDS011;36732;47.980;11.652;2023-06-26T10:27:10;3.10;;;2.80;;
50757;SDS011;36732;47.980;11.652;2023-06-26T10:29:47;3.33;;;3.03;;
50757;SDS011;36732;47.980;11.652;2023-06-26T10:32:17;3.40;;;3.10;;
50757;SDS011;36732;47.980;11.652;2023-06-26T10:34:44;3.60;;;2.70;;
50757;SDS011;36732;47.980;11.652;2023-06-26T10:37:10;3.40;;;2.80;;
50757;SDS011;36732;47.980;11.652;2023-06-26T10:39:47;3.35;;;3.05;;
50757;SDS011;36732;47.980;11.652;2023-06-26T10:42:14;4.03;;;2.70;;
50757;SDS011;36732;47.980;11.652;2023-06-26T10:44:42;3.17;;;2.67;;
50757;SDS011;36732;47.980;11.652;2023-06-26T10:47:09;2.88;;;2.58;;
50757;SDS011;36732;47.980;11.652;2023-06-26T10:49:36;4.10;;;2.88;;
50757;SDS011;36732;47.980;11.652;2023-06-26T10:52:04;4.93;;;3.38;;
50757;SDS011;36732;47.980;11.652;2023-06-26T10:54:31;3.03;;;2.72;;
50757;SDS011;36732;47.980;11.652;2023-06-26T10:56:58;3.63;;;3.30;;
50757;SDS011;36732;47.980;11.652;2023-06-26T10:59:28;3.03;;;2.72;;
50757;SDS011;36732;47.980;11.652;2023-06-26T11:09:54;2.90;;;2.60;;
50757;SDS011;36732;47.980;11.652;2023-06-26T11:12:42;2.70;;;2.50;;
50757;SDS011;36732;47.980;11.652;2023-06-26T11:15:10;2.70;;;2.50;;
50757;SDS011;36732;47.980;11.652;2023-06-26T11:17:38;2.67;;;2.47;;
50757;SDS011;36732;47.980;11.652;2023-06-26T11:20:05;3.65;;;3.00;;
50757;SDS011;36732;47.980;11.652;2023-06-26T11:22:34;3.17;;;2.58;;
50757;SDS011;36732;47.980;11.652;2023-06-26T11:25:02;2.60;;;2.40;;
50757;SDS011;36732;47.980;11.652;2023-06-26T11:27:31;3.40;;;2.28;;
50757;SDS011;36732;47.980;11.652;2023-06-26T11:30:07;3.25;;;2.95;;
50757;SDS011;36732;47.980;11.652;2023-06-26T11:32:36;3.35;;;3.05;;
50757;SDS011;36732;47.980;11.652;2023-06-26T11:35:05;3.28;;;2.97;;
50757;SDS011;36732;47.980;11.652;2023-06-26T11:37:32;2.85;;;2.60;;
50757;SDS011;36732;47.980;11.652;2023-06-26T11:39:58;2.90;;;2.60;;
50757;SDS011;36732;47.980;11.652;2023-06-26T11:42:24;4.88;;;2.50;;
50757;SDS011;36732;47.980;11.652;2023-06-26T11:44:50;4.07;;;2.50;;
50757;SDS011;36732;47.980;11.652;2023-06-26T11:47:17;4.13;;;3.10;;
50757;SDS011;36732;47.980;11.652;2023-06-26T11:49:46;3.10;;;2.80;;
50757;SDS011;36732;47.980;11.652;2023-06-26T11:52:14;4.30;;;3.28;;
50757;SDS011;36732;47.980;11.652;2023-06-26T11:54:41;2.92;;;2.63;;
50757;SDS011;36732;47.980;11.652;2023-06-26T11:57:08;2.50;;;2.30;;
50757;SDS011;36732;47.980;11.652;2023-06-26T11:59:39;4.20;;;3.15;;
50757;SDS011;36732;47.980;11.652;2023-06-26T12:02:13;3.58;;;2.85;;
50757;SDS011;36732;47.980;11.652;2023-06-26T12:04:43;3.10;;;2.80;;
50757;SDS011;36732;47.980;11.652;2023-06-26T12:07:10;3.50;;;2.70;;
50757;SDS011;36732;47.980;11.652;2023-06-26T12:09:43;3.53;;;3.05;;
50757;SDS011;36732;47.980;11.652;2023-06-26T12:12:13;3.10;;;2.80;;
50757;SDS011;36732;47.980;11.652;2023-06-26T12:14:42;5.10;;;2.88;;
50757;SDS011;36732;47.980;11.652;2023-06-26T12:17:11;3.42;;;3.13;;
50757;SDS011;36732;47.980;11.652;2023-06-26T12:19:39;5.55;;;3.63;;
50757;SDS011;36732;47.980;11.652;2023-06-26T12:22:10;3.28;;;2.97;;
50757;SDS011;36732;47.980;11.652;2023-06-26T12:24:37;3.35;;;3.05;;
50757;SDS011;36732;47.980;11.652;2023-06-26T12:27:07;3.80;;;3.40;;
50757;SDS011;36732;47.980;11.652;2023-06-26T12:29:38;3.92;;;3.35;;
50757;SDS011;36732;47.980;11.652;2023-06-26T12:32:09;3.42;;;3.13;;
50757;SDS011;36732;47.980;11.652;2023-06-26T12:34:36;3.83;;;2.75;;
50757;SDS011;36732;47.980;11.652;2023-06-26T12:37:04;3.42;;;3.13;;
50757;SDS011;36732;47.980;11.652;2023-06-26T12:42:22;3.17;;;2.88;;
50757;SDS011;36732;47.980;11.652;2023-06-26T12:44:51;3.67;;;3.00;;
50757;SDS011;36732;47.980;11.652;2023-06-26T12:47:19;3.63;;;3.30;;
50757;SDS011;36732;47.980;11.652;2023-06-26T12:49:53;4.13;;;3.28;;
50757;SDS011;36732;47.980;11.652;2023-06-26T12:52:19;3.40;;;3.10;;
50757;SDS011;36732;47.980;11.652;2023-06-26T12:54:46;3.60;;;3.30;;
50757;SDS011;36732;47.980;11.652;2023-06-26T12:57:16;3.65;;;3.35;;
50757;SDS011;36732;47.980;11.652;2023-06-26T12:59:42;3.30;;;3.00;;
50757;SDS011;36732;47.980;11.652;2023-06-26T13:02:08;3.40;;;2.85;;
50757;SDS011;36732;47.980;11.652;2023-06-26T13:04:36;5.22;;;3.80;;
50757;SDS011;36732;47.980;11.652;2023-06-26T13:07:04;5.72;;;3.55;;
50757;SDS011;36732;47.980;11.652;2023-06-26T13:09:32;3.15;;;2.88;;
50757;SDS011;36732;47.980;11.652;2023-06-26T13:11:59;4.43;;;3.35;;
50757;SDS011;36732;47.980;11.652;2023-06-26T13:14:25;3.55;;;3.22;;
50757;SDS011;36732;47.980;11.652;2023-06-26T13:16:51;3.88;;;3.50;;
50757;SDS011;36732;47.980;11.652;2023-06-26T13:19:17;5.85;;;3.28;;
50757;SDS011;36732;47.980;11.652;2023-06-26T13:21:42;3.42;;;3.13;;
50757;SDS011;36732;47.980;11.652;2023-06-26T13:24:08;4.15;;;3.10;;
50757;SDS011;36732;47.980;11.652;2023-06-26T13:26:34;3.53;;;3.22;;
50757;SDS011;36732;47.980;11.652;2023-06-26T13:29:00;6.65;;;4.40;;
50757;SDS011;36732;47.980;11.652;2023-06-26T13:31:26;3.70;;;3.40;;
50757;SDS011;36732;47.980;11.652;2023-06-26T13:33:51;4.45;;;2.97;;
50757;SDS011;36732;47.980;11.652;2023-06-26T13:36:17;4.35;;;3.28;;
50757;SDS011;36732;47.980;11.652;2023-06-26T13:38:44;5.40;;;4.00;;
50757;SDS011;36732;47.980;11.652;2023-06-26T13:41:11;3.90;;;3.50;;
50757;SDS011;36732;47.980;11.652;2023-06-26T13:43:37;5.15;;;3.15;;
50757;SDS011;36732;47.980;11.652;2023-06-26T13:46:02;4.10;;;3.70;;
50757;SDS011;36732;47.980;11.652;2023-06-26T13:48:28;5.15;;;3.78;;
50757;SDS011;36732;47.980;11.652;2023-06-26T13:50:54;5.63;;;3.97;;
50757;SDS011;36732;47.980;11.652;2023-06-26T13:53:21;3.88;;;3.47;;
50757;SDS011;36732;47.980;11.652;2023-06-26T13:55:47;3.80;;;3.40;;
50757;SDS011;36732;47.980;11.652;2023-06-26T13:58:13;4.10;;;3.65;;
50757;SDS011;36732;47.980;11.652;2023-06-26T14:00:39;3.75;;;3.42;;
50757;SDS011;36732;47.980;11.652;2023-06-26T14:03:06;5.15;;;3.70;;
50757;SDS011;36732;47.980;11.652;2023-06-26T14:05:33;4.53;;;4.00;;
50757;SDS011;36732;47.980;11.652;2023-06-26T14:08:02;3.80;;;3.35;;
50757;SDS011;36732;47.980;11.652;2023-06-26T14:10:30;4.25;;;3.78;;
50757;SDS011;36732;47.980;11.652;2023-06-26T14:12:58;5.88;;;3.63;;
50757;SDS011;36732;47.980;11.652;2023-06-26T14:15:24;4.13;;;3.70;;
50757;SDS011;36732;47.980;11.652;2023-06-26T14:17:50;3.78;;;3.33;;
50757;SDS011;36732;47.980;11.652;2023-06-26T14:20:17;4.30;;;3.88;;
50757;SDS011;36732;47.980;11.652;2023-06-26T14:22:44;5.47;;;4.15;;
50757;SDS011;36732;47.980;11.652;2023-06-26T14:25:10;4.30;;;3.63;;
50757;SDS011;36732;47.980;11.652;2023-06-26T14:27:37;5.47;;;3.88;;
50757;SDS011;36732;47.980;11.652;2023-06-26T14:30:03;4.72;;;3.70;;
50757;SDS011;36732;47.980;11.652;2023-06-26T14:32:30;5.10;;;3.92;;
50757;SDS011;36732;47.980;11.652;2023-06-26T14:34:56;4.70;;;3.70;;
50757;SDS011;36732;47.980;11.652;2023-06-26T14:37:22;5.45;;;4.47;;
50757;SDS011;36732;47.980;11.652;2023-06-26T14:39:49;4.10;;;3.70;;
50757;SDS011;36732;47.980;11.652;2023-06-26T14:42:15;4.97;;;3.90;;
50757;SDS011;36732;47.980;11.652;2023-06-26T14:44:40;4.30;;;3.90;;
50757;SDS011;36732;47.980;11.652;2023-06-26T14:47:06;4.15;;;3.70;;
50757;SDS011;36732;47.980;11.652;2023-06-26T14:49:32;5.28;;;3.78;;
50757;SDS011;36732;47.980;11.652;2023-06-26T14:51:58;4.80;;;3.58;;
50757;SDS011;36732;47.980;11.652;2023-06-26T14:54:23;6.22;;;4.60;;
50757;SDS011;36732;47.980;11.652;2023-06-26T14:56:49;4.18;;;3.38;;